Time;durP1;ratioP1;P1;durP2;ratioP2;P2;SDS_P1;SDS_P2;PMS_P1;PMS_P2;Temp;Humidity;BMP_temperature;BMP_pressure;BME280_temperature;BME280_humidity;BME280_pressure;Samples;Min_cycle;Max_cycle;Signal;HPM_P1;HPM_P2
2021/10/12 00:00:26;;;;;;;14.67;8.00;;;;;;;;;;4982850;28;20234;-87
2021/10/12 00:03:30;;;;;;;10.93;6.90;;;;;;;;;;4974695;28;20240;-89
2021/10/12 00:06:34;;;;;;;9.70;7.00;;;;;;;;;;4985663;28;20206;-88
2021/10/12 00:09:38;;;;;;;13.23;7.70;;;;;;;;;;4996380;28;20226;-87
2021/10/12 00:12:43;;;;;;;12.23;7.87;;;;;;;;;;4985425;28;20210;-89
2021/10/12 00:15:47;;;;;;;14.67;8.30;;;;;;;;;;4985158;28;20182;-87
2021/10/12 00:18:51;;;;;;;12.97;8.67;;;;;;;;;;4974221;28;20222;-89
2021/10/12 00:21:55;;;;;;;15.13;8.47;;;;;;;;;;4984878;28;20202;-86
2021/10/12 00:24:59;;;;;;;17.60;9.17;;;;;;;;;;4974215;28;20182;-89
2021/10/12 00:28:03;;;;;;;12.93;8.00;;;;;;;;;;4973976;28;20186;-88
2021/10/12 00:31:07;;;;;;;14.17;8.67;;;;;;;;;;4984988;28;20190;-89
2021/10/12 00:34:11;;;;;;;12.70;7.37;;;;;;;;;;4996045;28;20210;-87
2021/10/12 00:37:16;;;;;;;11.90;7.13;;;;;;;;;;4984871;28;20182;-89
2021/10/12 00:40:21;;;;;;;12.53;6.87;;;;;;;;;;4995881;28;20222;-86
2021/10/12 00:43:25;;;;;;;15.37;7.90;;;;;;;;;;4984669;28;20178;-88
2021/10/12 00:46:29;;;;;;;12.43;7.70;;;;;;;;;;4973859;28;20190;-89
2021/10/12 00:49:33;;;;;;;12.83;7.93;;;;;;;;;;4973852;28;20554;-89
2021/10/12 00:52:38;;;;;;;12.37;8.57;;;;;;;;;;4996762;28;20198;-86
2021/10/12 00:55:43;;;;;;;12.53;8.67;;;;;;;;;;4995758;28;20190;-86
2021/10/12 00:58:48;;;;;;;10.40;7.63;;;;;;;;;;4976255;28;20569;-89
2021/10/12 01:01:52;;;;;;;13.27;8.63;;;;;;;;;;5003822;28;20185;-86
2021/10/12 01:04:57;;;;;;;15.47;8.43;;;;;;;;;;4992984;28;20186;-87
2021/10/12 01:08:01;;;;;;;12.50;8.70;;;;;;;;;;4981731;28;20194;-86
2021/10/12 01:11:07;;;;;;;14.17;8.43;;;;;;;;;;4992645;28;20193;-86
2021/10/12 01:14:11;;;;;;;15.67;10.00;;;;;;;;;;4992821;28;20209;-87
2021/10/12 01:17:15;;;;;;;18.97;9.43;;;;;;;;;;4981348;28;20189;-87
2021/10/12 01:20:21;;;;;;;16.10;8.90;;;;;;;;;;4992480;28;20220;-87
2021/10/12 01:23:25;;;;;;;13.30;8.60;;;;;;;;;;4981278;28;20193;-89
2021/10/12 01:26:29;;;;;;;12.50;9.03;;;;;;;;;;4992263;28;20185;-88
2021/10/12 01:29:33;;;;;;;18.00;9.83;;;;;;;;;;4991783;28;20221;-89
2021/10/12 01:32:42;;;;;;;17.90;10.00;;;;;;;;;;4980786;28;20205;-87
2021/10/12 01:35:50;;;;;;;17.53;10.07;;;;;;;;;;4992116;28;20185;-88
2021/10/12 01:38:54;;;;;;;16.57;9.83;;;;;;;;;;4980912;28;20582;-87
2021/10/12 01:41:59;;;;;;;18.27;10.23;;;;;;;;;;4981132;28;20189;-86
2021/10/12 01:45:06;;;;;;;16.93;10.57;;;;;;;;;;4992118;28;20181;-89
2021/10/12 01:48:10;;;;;;;14.83;9.63;;;;;;;;;;5003258;28;20189;-87
2021/10/12 01:51:14;;;;;;;20.20;10.60;;;;;;;;;;4992098;28;20518;-86
2021/10/12 01:54:20;;;;;;;18.57;10.87;;;;;;;;;;4991313;28;20577;-86
2021/10/12 01:57:24;;;;;;;18.30;10.53;;;;;;;;;;4991603;28;20189;-87
2021/10/12 02:00:28;;;;;;;19.17;10.57;;;;;;;;;;4980366;28;20726;-88
2021/10/12 02:03:33;;;;;;;18.17;10.47;;;;;;;;;;4991630;28;20207;-89
2021/10/12 02:06:37;;;;;;;20.57;10.37;;;;;;;;;;4991492;28;20201;-89
2021/10/12 02:09:41;;;;;;;17.53;10.53;;;;;;;;;;4991592;28;20684;-88
2021/10/12 02:12:46;;;;;;;16.27;10.63;;;;;;;;;;5014567;28;20200;-89
2021/10/12 02:15:50;;;;;;;20.40;11.33;;;;;;;;;;4991346;28;20185;-88
2021/10/12 02:18:54;;;;;;;19.83;11.27;;;;;;;;;;4991361;28;20220;-89
2021/10/12 02:21:58;;;;;;;17.17;10.33;;;;;;;;;;4980136;28;20186;-88
2021/10/12 02:25:05;;;;;;;24.77;12.60;;;;;;;;;;4979519;28;20181;-89
2021/10/12 02:28:10;;;;;;;18.23;11.93;;;;;;;;;;4990884;28;20205;-89
2021/10/12 02:31:15;;;;;;;21.53;11.97;;;;;;;;;;4990676;28;20201;-89
2021/10/12 02:34:19;;;;;;;23.03;12.83;;;;;;;;;;4979595;28;20584;-89
2021/10/12 02:37:23;;;;;;;21.30;12.23;;;;;;;;;;4980152;28;20529;-88
2021/10/12 02:40:27;;;;;;;21.23;12.47;;;;;;;;;;4990961;28;20545;-88
2021/10/12 02:43:31;;;;;;;20.60;12.13;;;;;;;;;;4979804;28;20177;-89
2021/10/12 02:46:35;;;;;;;23.13;13.43;;;;;;;;;;5002367;28;20528;-89
2021/10/12 02:49:40;;;;;;;23.03;12.87;;;;;;;;;;4991061;28;20221;-88
2021/10/12 02:52:44;;;;;;;22.77;12.37;;;;;;;;;;4990935;28;20185;-88
2021/10/12 02:55:47;;;;;;;23.13;13.93;;;;;;;;;;4990979;28;20197;-88
2021/10/12 02:58:52;;;;;;;20.70;13.07;;;;;;;;;;5002414;28;20232;-88
2021/10/12 03:01:56;;;;;;;23.50;13.73;;;;;;;;;;4990475;28;20534;-88
2021/10/12 03:05:00;;;;;;;19.37;13.20;;;;;;;;;;4988992;28;20193;-88
2021/10/12 03:08:04;;;;;;;22.63;13.67;;;;;;;;;;5021525;28;20538;-89
2021/10/12 03:11:09;;;;;;;23.87;13.93;;;;;;;;;;5010166;28;20193;-88
2021/10/12 03:14:13;;;;;;;23.93;13.37;;;;;;;;;;4997463;28;20248;-89
2021/10/12 03:17:17;;;;;;;24.50;13.97;;;;;;;;;;4979302;28;20186;-89
2021/10/12 03:20:22;;;;;;;22.37;14.10;;;;;;;;;;4990621;28;20708;-89
2021/10/12 03:23:26;;;;;;;23.70;14.57;;;;;;;;;;5015273;28;20197;-89
2021/10/12 03:26:33;;;;;;;25.33;14.87;;;;;;;;;;5010232;28;20177;-89
2021/10/12 03:29:38;;;;;;;21.83;13.67;;;;;;;;;;5021126;28;20220;-89
2021/10/12 03:32:42;;;;;;;25.20;14.23;;;;;;;;;;4998795;28;20205;-89
2021/10/12 03:35:54;;;;;;;26.90;14.87;;;;;;;;;;5009758;28;20192;-89
2021/10/12 03:38:59;;;;;;;26.70;15.07;;;;;;;;;;5025010;28;20224;-88
2021/10/12 03:42:03;;;;;;;26.53;14.00;;;;;;;;;;4986306;28;20201;-88
2021/10/12 03:45:07;;;;;;;23.77;14.73;;;;;;;;;;4972299;28;20186;-88
2021/10/12 03:48:11;;;;;;;25.20;14.13;;;;;;;;;;4985758;28;20186;-88
2021/10/12 03:51:15;;;;;;;24.03;15.43;;;;;;;;;;4985805;28;20186;-88
2021/10/12 03:54:19;;;;;;;30.93;15.93;;;;;;;;;;4974479;28;20210;-88
2021/10/12 03:57:24;;;;;;;23.20;14.57;;;;;;;;;;4985604;28;20178;-86
2021/10/12 04:00:28;;;;;;;25.43;15.33;;;;;;;;;;4973975;28;20233;-86
2021/10/12 04:03:32;;;;;;;28.83;15.20;;;;;;;;;;4974319;28;20186;-86
2021/10/12 04:06:36;;;;;;;23.13;14.50;;;;;;;;;;4985493;28;20190;-86
2021/10/12 04:09:40;;;;;;;27.23;15.57;;;;;;;;;;4974424;28;20217;-86
2021/10/12 04:12:45;;;;;;;24.83;15.27;;;;;;;;;;4963456;28;20186;-86
2021/10/12 04:15:48;;;;;;;27.37;15.43;;;;;;;;;;4962905;28;20538;-86
2021/10/12 04:18:52;;;;;;;25.33;15.57;;;;;;;;;;4963130;28;20221;-86
2021/10/12 04:21:57;;;;;;;29.47;16.57;;;;;;;;;;4963222;28;20210;-86
2021/10/12 04:25:01;;;;;;;29.23;15.77;;;;;;;;;;4973662;28;20194;-86
2021/10/12 04:28:11;;;;;;;27.73;16.27;;;;;;;;;;4962940;28;20202;-86
2021/10/12 04:31:15;;;;;;;27.60;17.50;;;;;;;;;;4963067;28;20536;-86
2021/10/12 04:34:19;;;;;;;26.50;16.27;;;;;;;;;;4962887;28;20226;-86
2021/10/12 04:37:23;;;;;;;30.90;16.57;;;;;;;;;;4973344;28;20201;-86
2021/10/12 04:40:29;;;;;;;29.87;17.27;;;;;;;;;;4962251;28;20222;-86
2021/10/12 04:43:35;;;;;;;28.80;17.67;;;;;;;;;;4973882;28;20190;-86
2021/10/12 04:46:39;;;;;;;31.17;19.43;;;;;;;;;;4973737;28;20190;-86
2021/10/12 04:49:43;;;;;;;27.57;18.93;;;;;;;;;;4973307;28;20222;-86
2021/10/12 04:52:48;;;;;;;31.87;19.73;;;;;;;;;;4962677;28;20182;-86
2021/10/12 04:55:52;;;;;;;28.93;17.63;;;;;;;;;;4984580;28;20214;-86
2021/10/12 04:58:56;;;;;;;29.80;18.53;;;;;;;;;;4973238;28;20230;-86
2021/10/12 05:02:00;;;;;;;28.67;18.10;;;;;;;;;;4984245;28;20186;-87
2021/10/12 05:05:04;;;;;;;30.17;18.13;;;;;;;;;;4962337;28;20186;-86
2021/10/12 05:08:09;;;;;;;31.37;18.43;;;;;;;;;;4962118;28;20187;-86
2021/10/12 05:11:13;;;;;;;31.83;19.27;;;;;;;;;;4984266;28;20186;-86
2021/10/12 05:14:18;;;;;;;33.93;19.50;;;;;;;;;;4962387;28;20553;-86
2021/10/12 05:17:32;;;;;;;34.20;20.63;;;;;;;;;;4973034;28;20205;-86
2021/10/12 05:20:36;;;;;;;33.27;18.50;;;;;;;;;;4984152;28;20689;-86
2021/10/12 05:23:40;;;;;;;31.93;19.37;;;;;;;;;;4961924;28;20175;-86
2021/10/12 05:26:45;;;;;;;32.10;21.27;;;;;;;;;;4972717;28;20202;-86
2021/10/12 05:29:49;;;;;;;33.57;19.53;;;;;;;;;;4961799;28;20689;-86
2021/10/12 05:32:54;;;;;;;39.40;21.60;;;;;;;;;;4983726;28;20202;-86
2021/10/12 05:36:00;;;;;;;35.70;20.63;;;;;;;;;;4972601;28;20210;-86
2021/10/12 05:39:04;;;;;;;33.73;19.80;;;;;;;;;;4961636;28;20218;-86
2021/10/12 05:42:08;;;;;;;35.17;19.80;;;;;;;;;;4961267;28;20696;-86
2021/10/12 05:45:12;;;;;;;36.57;21.30;;;;;;;;;;4961138;28;20546;-86
2021/10/12 05:48:18;;;;;;;38.60;19.83;;;;;;;;;;4972198;28;20523;-87
2021/10/12 05:51:24;;;;;;;34.43;21.20;;;;;;;;;;4972758;28;20183;-86
2021/10/12 05:54:30;;;;;;;30.40;19.43;;;;;;;;;;4961190;28;20210;-87
2021/10/12 05:58:05;;;;;;;36.40;21.53;;;;;;;;;;4961191;28;20186;-86
2021/10/12 06:01:02;;;;;;;32.50;19.77;;;;;;;;;;4952826;28;20211;-87
2021/10/12 06:04:06;;;;;;;30.97;19.63;;;;;;;;;;4975955;28;20202;-87
2021/10/12 06:07:10;;;;;;;34.00;20.33;;;;;;;;;;4952663;28;20187;-87
2021/10/12 06:10:15;;;;;;;37.27;20.73;;;;;;;;;;4964004;28;20222;-87
2021/10/12 06:13:21;;;;;;;32.33;21.17;;;;;;;;;;4963703;28;20187;-87
2021/10/12 06:16:26;;;;;;;36.67;21.30;;;;;;;;;;4952876;28;20183;-87
2021/10/12 06:19:30;;;;;;;33.23;19.67;;;;;;;;;;4963644;28;20226;-87
2021/10/12 06:22:34;;;;;;;36.83;20.83;;;;;;;;;;4953217;28;20190;-85
2021/10/12 06:25:38;;;;;;;40.73;20.87;;;;;;;;;;4952684;28;20183;-86
2021/10/12 06:28:42;;;;;;;33.03;20.43;;;;;;;;;;4963748;28;20183;-86
2021/10/12 06:31:46;;;;;;;36.80;21.77;;;;;;;;;;4941544;28;20190;-85
2021/10/12 06:34:50;;;;;;;33.00;19.40;;;;;;;;;;4963586;28;20215;-86
2021/10/12 06:37:54;;;;;;;39.77;21.83;;;;;;;;;;4963258;28;20188;-86
2021/10/12 06:40:58;;;;;;;33.13;20.27;;;;;;;;;;4952923;28;20187;-85
2021/10/12 06:44:03;;;;;;;33.90;20.33;;;;;;;;;;4952442;28;20186;-85
2021/10/12 06:47:06;;;;;;;33.97;20.53;;;;;;;;;;4952734;28;20183;-85
2021/10/12 06:50:11;;;;;;;32.67;19.97;;;;;;;;;;4952097;28;20690;-85
2021/10/12 06:53:15;;;;;;;36.50;20.17;;;;;;;;;;4941161;28;20190;-85
2021/10/12 06:56:19;;;;;;;33.43;20.57;;;;;;;;;;4951968;28;20574;-85
2021/10/12 06:59:24;;;;;;;34.30;19.20;;;;;;;;;;4948535;28;20233;-85
2021/10/12 07:02:28;;;;;;;50.20;30.53;;;;;;;;;;4971400;28;20201;-85
2021/10/12 07:05:32;;;;;;;35.30;19.73;;;;;;;;;;4971312;28;20198;-86
2021/10/12 07:08:36;;;;;;;32.17;21.03;;;;;;;;;;4960409;28;20187;-85
2021/10/12 07:11:41;;;;;;;37.73;21.07;;;;;;;;;;4963867;28;20181;-85
2021/10/12 07:14:45;;;;;;;35.03;21.47;;;;;;;;;;4975492;28;20210;-85
2021/10/12 07:17:49;;;;;;;34.93;20.67;;;;;;;;;;4986611;28;20186;-85
2021/10/12 07:20:53;;;;;;;34.47;21.27;;;;;;;;;;4975514;28;20182;-86
2021/10/12 07:23:57;;;;;;;38.73;21.03;;;;;;;;;;4974915;28;20190;-86
2021/10/12 07:27:01;;;;;;;31.80;21.33;;;;;;;;;;4964678;28;20182;-86
2021/10/12 07:30:06;;;;;;;36.97;20.67;;;;;;;;;;4963922;28;20221;-85
2021/10/12 07:33:10;;;;;;;37.10;22.17;;;;;;;;;;4986390;28;20190;-85
2021/10/12 07:36:14;;;;;;;33.03;20.90;;;;;;;;;;4974802;28;20214;-85
2021/10/12 07:39:18;;;;;;;35.53;20.87;;;;;;;;;;4974747;28;20218;-85
2021/10/12 07:42:22;;;;;;;36.57;21.00;;;;;;;;;;4975226;28;20186;-85
2021/10/12 07:45:26;;;;;;;38.77;20.90;;;;;;;;;;4974895;28;20198;-86
2021/10/12 07:48:30;;;;;;;38.70;21.57;;;;;;;;;;4963375;28;20557;-86
2021/10/12 07:51:34;;;;;;;41.10;22.20;;;;;;;;;;4985705;28;20186;-85
2021/10/12 07:54:46;;;;;;;38.83;21.73;;;;;;;;;;4964086;28;20186;-86
2021/10/12 07:57:50;;;;;;;38.00;21.17;;;;;;;;;;4974582;28;20186;-85
2021/10/12 08:00:54;;;;;;;35.73;21.50;;;;;;;;;;4966195;28;20545;-85
2021/10/12 08:04:00;;;;;;;39.30;21.50;;;;;;;;;;4955252;28;20191;-85
2021/10/12 08:07:04;;;;;;;41.30;22.63;;;;;;;;;;4976756;28;20198;-85
2021/10/12 08:10:09;;;;;;;37.07;21.80;;;;;;;;;;4955018;28;20226;-85
2021/10/12 08:13:21;;;;;;;32.93;20.37;;;;;;;;;;4955208;28;20187;-85
2021/10/12 08:16:30;;;;;;;33.50;19.87;;;;;;;;;;4965619;28;20211;-85
2021/10/12 08:19:34;;;;;;;28.70;18.80;;;;;;;;;;4965634;28;20222;-85
2021/10/12 08:22:38;;;;;;;32.47;19.37;;;;;;;;;;4953706;28;20187;-85
2021/10/12 08:25:42;;;;;;;32.77;19.20;;;;;;;;;;4954711;28;20634;-85
2021/10/12 08:28:46;;;;;;;34.13;19.97;;;;;;;;;;4954646;28;20226;-85
2021/10/12 08:31:50;;;;;;;33.70;22.00;;;;;;;;;;4954640;28;20183;-85
2021/10/12 08:34:54;;;;;;;35.13;20.80;;;;;;;;;;4954692;28;20186;-85
2021/10/12 08:37:58;;;;;;;35.03;20.77;;;;;;;;;;4954282;28;20183;-85
2021/10/12 08:41:07;;;;;;;33.23;20.20;;;;;;;;;;4965750;28;20183;-85
2021/10/12 08:44:11;;;;;;;32.63;18.23;;;;;;;;;;4976494;28;20183;-85
2021/10/12 08:47:16;;;;;;;28.87;18.03;;;;;;;;;;4965437;28;20179;-85
2021/10/12 08:50:22;;;;;;;26.97;16.87;;;;;;;;;;4954258;28;20226;-85
2021/10/12 08:53:27;;;;;;;24.17;15.13;;;;;;;;;;4954137;28;20523;-85
2021/10/12 08:56:31;;;;;;;20.73;13.10;;;;;;;;;;4954333;28;20678;-85
2021/10/12 08:59:35;;;;;;;20.47;11.43;;;;;;;;;;5007818;23;20235;-86
2021/10/12 09:06:34;;;;;;;17.23;10.03;;;;;;;;;;5043383;28;20180;-86
2021/10/12 09:09:39;;;;;;;15.80;10.23;;;;;;;;;;5031667;28;20228;-86
2021/10/12 09:12:45;;;;;;;15.67;10.00;;;;;;;;;;5043442;28;20180;-86
2021/10/12 09:16:10;;;;;;;17.27;9.70;;;;;;;;;;5020349;28;20212;-86
2021/10/12 09:19:16;;;;;;;14.30;7.67;;;;;;;;;;5020750;28;20216;-86
2021/10/12 09:22:20;;;;;;;12.43;8.50;;;;;;;;;;5031634;28;20192;-86
2021/10/12 09:25:44;;;;;;;10.80;6.43;;;;;;;;;;5020537;28;20626;-86
2021/10/12 09:28:48;;;;;;;8.27;6.23;;;;;;;;;;5020340;28;20193;-86
2021/10/12 09:31:54;;;;;;;8.47;6.07;;;;;;;;;;5042284;28;20199;-86
2021/10/12 09:35:02;;;;;;;10.37;6.47;;;;;;;;;;5019495;28;20204;-86
2021/10/12 09:38:10;;;;;;;8.33;4.77;;;;;;;;;;5031169;28;20647;-86
2021/10/12 09:41:15;;;;;;;6.00;4.60;;;;;;;;;;5019828;28;20185;-86
2021/10/12 09:44:21;;;;;;;5.83;4.30;;;;;;;;;;5042846;28;20184;-86
2021/10/12 09:47:27;;;;;;;5.87;3.93;;;;;;;;;;5019986;28;20179;-86
2021/10/12 09:50:32;;;;;;;8.30;3.30;;;;;;;;;;5042351;28;20219;-85
2021/10/12 09:53:37;;;;;;;5.63;3.43;;;;;;;;;;5030827;28;20184;-86
2021/10/12 09:56:43;;;;;;;3.27;2.50;;;;;;;;;;5030870;28;20544;-86
2021/10/12 09:59:47;;;;;;;4.20;3.13;;;;;;;;;;5041912;28;20228;-86
2021/10/12 10:02:52;;;;;;;3.20;2.53;;;;;;;;;;5019545;28;20187;-85
2021/10/12 10:06:11;;;;;;;3.67;2.60;;;;;;;;;;5030931;28;20180;-85
2021/10/12 10:09:20;;;;;;;3.70;2.00;;;;;;;;;;5019466;28;20564;-85
2021/10/12 10:12:25;;;;;;;4.67;2.17;;;;;;;;;;5019170;28;20200;-85
2021/10/12 10:15:30;;;;;;;4.00;3.20;;;;;;;;;;5019380;28;20622;-85
2021/10/12 10:18:38;;;;;;;3.73;2.63;;;;;;;;;;5041755;28;20184;-85
2021/10/12 10:21:46;;;;;;;6.13;2.47;;;;;;;;;;5019293;28;20184;-85
2021/10/12 10:24:56;;;;;;;4.40;2.30;;;;;;;;;;5030652;28;20192;-85
2021/10/12 10:28:23;;;;;;;3.10;2.43;;;;;;;;;;5019308;28;20180;-85
2021/10/12 10:31:39;;;;;;;3.80;2.50;;;;;;;;;;5035978;28;20183;-85
2021/10/12 10:34:45;;;;;;;5.50;2.63;;;;;;;;;;5019177;28;20188;-85
2021/10/12 10:37:50;;;;;;;7.17;2.40;;;;;;;;;;5019486;28;20180;-85
2021/10/12 10:41:03;;;;;;;4.40;2.10;;;;;;;;;;5019002;28;20686;-85
2021/10/12 10:44:07;;;;;;;4.43;2.67;;;;;;;;;;5019202;28;20192;-85
2021/10/12 10:47:40;;;;;;;5.07;2.47;;;;;;;;;;5041685;28;20635;-85
2021/10/12 10:50:45;;;;;;;5.17;2.53;;;;;;;;;;5018989;28;20698;-85
2021/10/12 10:53:49;;;;;;;5.43;2.27;;;;;;;;;;5019403;28;20188;-85
2021/10/12 10:57:18;;;;;;;4.03;2.30;;;;;;;;;;5018849;28;20674;-85
2021/10/12 11:00:23;;;;;;;4.47;2.57;;;;;;;;;;5015785;28;20228;-85
2021/10/12 11:03:29;;;;;;;7.90;2.60;;;;;;;;;;5012954;28;20204;-86
2021/10/12 11:06:33;;;;;;;3.00;2.43;;;;;;;;;;5015248;28;20177;-86
2021/10/12 11:09:43;;;;;;;3.83;3.20;;;;;;;;;;5022429;28;20220;-85
2021/10/12 11:12:48;;;;;;;9.93;5.53;;;;;;;;;;5021975;28;20189;-85
2021/10/12 11:15:52;;;;;;;6.37;3.30;;;;;;;;;;5021286;28;20220;-85
2021/10/12 11:19:00;;;;;;;14.33;9.53;;;;;;;;;;5021592;28;20184;-85
2021/10/12 11:22:04;;;;;;;8.77;4.90;;;;;;;;;;5021284;28;20197;-85
2021/10/12 11:25:10;;;;;;;4.23;3.07;;;;;;;;;;5032673;28;20204;-85
2021/10/12 11:28:14;;;;;;;4.27;3.10;;;;;;;;;;5010093;28;20628;-85
2021/10/12 11:31:25;;;;;;;5.80;3.60;;;;;;;;;;5021708;28;20181;-85
2021/10/12 11:34:31;;;;;;;4.50;3.20;;;;;;;;;;5022372;28;20185;-85
2021/10/12 11:37:35;;;;;;;5.90;3.63;;;;;;;;;;5010501;28;20216;-85
2021/10/12 11:40:39;;;;;;;7.27;4.70;;;;;;;;;;5021778;28;20220;-85
2021/10/12 11:43:46;;;;;;;4.60;3.53;;;;;;;;;;5010902;28;20632;-85
2021/10/12 11:46:54;;;;;;;8.80;3.90;;;;;;;;;;5032818;28;20201;-85
2021/10/12 11:50:07;;;;;;;6.30;3.73;;;;;;;;;;5021276;28;20572;-85
2021/10/12 11:53:25;;;;;;;5.80;4.17;;;;;;;;;;5021422;28;20185;-85
2021/10/12 11:56:33;;;;;;;8.07;4.37;;;;;;;;;;5010851;28;20217;-85
2021/10/12 11:59:46;;;;;;;7.03;4.10;;;;;;;;;;5043274;28;20235;-86
2021/10/12 12:02:51;;;;;;;7.50;4.27;;;;;;;;;;5022412;28;20528;-85
2021/10/12 12:05:56;;;;;;;6.13;4.20;;;;;;;;;;5022082;28;20188;-85
2021/10/12 12:09:04;;;;;;;5.70;3.63;;;;;;;;;;5032705;28;20643;-85
2021/10/12 12:12:08;;;;;;;4.90;3.73;;;;;;;;;;5033062;28;20180;-85
2021/10/12 12:15:13;;;;;;;6.93;4.00;;;;;;;;;;5032908;28;20176;-85
2021/10/12 12:18:19;;;;;;;5.93;3.97;;;;;;;;;;5044386;28;20184;-85
2021/10/12 12:21:31;;;;;;;8.00;4.60;;;;;;;;;;5021206;28;20199;-85
2021/10/12 12:24:35;;;;;;;6.17;4.07;;;;;;;;;;5032719;28;20184;-85
2021/10/12 12:27:55;;;;;;;6.27;3.80;;;;;;;;;;5021355;28;20196;-85
2021/10/12 12:31:45;;;;;;;7.67;3.97;;;;;;;;;;5021759;28;20699;-85
2021/10/12 12:35:00;;;;;;;6.87;3.80;;;;;;;;;;4953222;28;20191;-85
2021/10/12 12:38:06;;;;;;;6.80;4.00;;;;;;;;;;4972071;28;20211;-85
2021/10/12 12:41:22;;;;;;;5.50;3.80;;;;;;;;;;5044708;28;20208;-85
2021/10/12 12:44:26;;;;;;;6.47;4.27;;;;;;;;;;5044493;28;20184;-85
2021/10/12 12:47:33;;;;;;;6.73;3.97;;;;;;;;;;5021344;28;20531;-85
2021/10/12 12:50:38;;;;;;;6.73;3.77;;;;;;;;;;5043787;28;20215;-86
2021/10/12 12:53:45;;;;;;;5.83;4.17;;;;;;;;;;5021669;28;20200;-86
2021/10/12 12:56:49;;;;;;;5.03;3.50;;;;;;;;;;5021812;28;20212;-86
2021/10/12 13:00:13;;;;;;;6.37;3.43;;;;;;;;;;5013037;28;20228;-86
2021/10/12 13:03:37;;;;;;;6.87;3.37;;;;;;;;;;5027586;28;20640;-86
2021/10/12 13:06:42;;;;;;;7.37;3.80;;;;;;;;;;5024735;28;20184;-86
2021/10/12 13:09:49;;;;;;;6.53;3.83;;;;;;;;;;5023096;28;20216;-86
2021/10/12 13:12:53;;;;;;;4.97;2.93;;;;;;;;;;5012207;28;20185;-86
2021/10/12 13:15:57;;;;;;;7.10;3.40;;;;;;;;;;5012501;28;20184;-86
2021/10/12 13:19:01;;;;;;;4.50;3.23;;;;;;;;;;5011988;28;20185;-86
2021/10/12 13:22:08;;;;;;;5.37;3.10;;;;;;;;;;5035175;28;20181;-86
2021/10/12 13:25:13;;;;;;;4.43;3.47;;;;;;;;;;5024033;28;20635;-86
2021/10/12 13:28:17;;;;;;;4.17;3.10;;;;;;;;;;5023854;28;20185;-85
2021/10/12 13:31:27;;;;;;;6.60;3.70;;;;;;;;;;5011884;28;20185;-85
2021/10/12 13:34:31;;;;;;;4.23;3.30;;;;;;;;;;5012087;28;20631;-85
2021/10/12 13:37:36;;;;;;;5.00;2.83;;;;;;;;;;5011709;28;20209;-85
2021/10/12 13:40:40;;;;;;;4.97;3.20;;;;;;;;;;5022860;28;20560;-85
2021/10/12 13:43:44;;;;;;;6.67;3.13;;;;;;;;;;5034462;28;20185;-85
2021/10/12 13:46:49;;;;;;;2.90;2.23;;;;;;;;;;5011449;28;20185;-85
2021/10/12 13:49:53;;;;;;;4.77;2.67;;;;;;;;;;5011294;28;20220;-85
2021/10/12 13:52:57;;;;;;;3.50;2.50;;;;;;;;;;5022449;28;20193;-86
2021/10/12 13:56:00;;;;;;;5.40;3.30;;;;;;;;;;5033825;28;20181;-85
2021/10/12 13:59:04;;;;;;;4.33;2.60;;;;;;;;;;5024911;28;20216;-85
2021/10/12 14:02:10;;;;;;;4.40;2.70;;;;;;;;;;5041962;28;20192;-86
2021/10/12 14:05:14;;;;;;;7.07;3.30;;;;;;;;;;5022111;28;20188;-85
2021/10/12 14:08:18;;;;;;;5.20;3.30;;;;;;;;;;5019727;28;20184;-85
2021/10/12 14:11:22;;;;;;;4.40;2.83;;;;;;;;;;5020530;28;20627;-85
2021/10/12 14:14:26;;;;;;;5.17;3.30;;;;;;;;;;5042717;28;20184;-85
2021/10/12 14:17:30;;;;;;;5.80;3.07;;;;;;;;;;5030723;28;20204;-85
2021/10/12 14:20:34;;;;;;;3.43;3.07;;;;;;;;;;5018571;28;20215;-85
2021/10/12 14:23:39;;;;;;;4.13;2.97;;;;;;;;;;5041761;28;20184;-85
2021/10/12 14:26:43;;;;;;;4.57;3.10;;;;;;;;;;5042730;28;20188;-85
2021/10/12 14:29:47;;;;;;;4.23;3.23;;;;;;;;;;5030654;28;20216;-84
2021/10/12 14:32:51;;;;;;;4.20;3.63;;;;;;;;;;5030687;28;20184;-85
2021/10/12 14:35:56;;;;;;;4.33;3.50;;;;;;;;;;5030332;28;20179;-85
2021/10/12 14:39:00;;;;;;;5.97;3.37;;;;;;;;;;5030383;28;20193;-85
2021/10/12 14:42:05;;;;;;;4.07;3.37;;;;;;;;;;5030394;28;20532;-85
2021/10/12 14:45:09;;;;;;;5.57;3.60;;;;;;;;;;5041447;28;20192;-85
2021/10/12 14:48:15;;;;;;;4.83;3.87;;;;;;;;;;5030465;28;20176;-85
2021/10/12 14:51:19;;;;;;;5.00;4.07;;;;;;;;;;5030566;28;20180;-85
2021/10/12 14:54:23;;;;;;;6.33;4.10;;;;;;;;;;5019366;28;20184;-85
2021/10/12 14:57:27;;;;;;;8.63;4.20;;;;;;;;;;5031827;28;20204;-85
2021/10/12 15:00:31;;;;;;;7.83;4.33;;;;;;;;;;5050722;22;20237;-87
2021/10/12 15:03:35;;;;;;;6.87;4.77;;;;;;;;;;5002412;28;20181;-87
2021/10/12 15:06:40;;;;;;;7.60;5.10;;;;;;;;;;4991721;28;20201;-88
2021/10/12 15:09:44;;;;;;;8.37;4.50;;;;;;;;;;5002568;28;20217;-87
2021/10/12 15:12:48;;;;;;;7.07;4.60;;;;;;;;;;4992007;28;20190;-88
2021/10/12 15:15:52;;;;;;;6.93;4.20;;;;;;;;;;5002831;28;20530;-87
2021/10/12 15:18:56;;;;;;;6.63;4.70;;;;;;;;;;4991724;28;20209;-88
2021/10/12 15:22:01;;;;;;;6.27;4.77;;;;;;;;;;4991872;28;20181;-87
2021/10/12 15:25:06;;;;;;;6.27;4.63;;;;;;;;;;4991523;28;20185;-88
2021/10/12 15:28:10;;;;;;;7.20;4.43;;;;;;;;;;4991092;28;20181;-88
2021/10/12 15:31:15;;;;;;;7.53;4.00;;;;;;;;;;4991389;28;20225;-87
2021/10/12 15:34:20;;;;;;;6.93;4.37;;;;;;;;;;5018082;28;20629;-88
2021/10/12 15:37:24;;;;;;;6.23;3.70;;;;;;;;;;4994942;28;20565;-87
2021/10/12 15:40:29;;;;;;;7.13;5.37;;;;;;;;;;5016953;28;20221;-87
2021/10/12 15:43:33;;;;;;;8.13;4.37;;;;;;;;;;5005366;28;20182;-88
2021/10/12 15:46:39;;;;;;;5.97;3.60;;;;;;;;;;4994196;28;20636;-87
2021/10/12 15:49:44;;;;;;;7.20;3.90;;;;;;;;;;5005331;28;20549;-87
2021/10/12 15:52:48;;;;;;;5.57;3.67;;;;;;;;;;5016159;28;20197;-87
2021/10/12 15:55:53;;;;;;;6.13;3.73;;;;;;;;;;5005021;28;20239;-87
2021/10/12 15:58:59;;;;;;;4.83;3.63;;;;;;;;;;5005112;28;20217;-87
2021/10/12 16:02:04;;;;;;;7.27;3.93;;;;;;;;;;5004924;28;20181;-87
2021/10/12 16:05:08;;;;;;;6.23;3.80;;;;;;;;;;4993779;28;20514;-87
2021/10/12 16:08:12;;;;;;;7.27;3.70;;;;;;;;;;4993663;28;20182;-87
2021/10/12 16:11:17;;;;;;;6.97;3.43;;;;;;;;;;5004803;28;20591;-88
2021/10/12 16:14:22;;;;;;;6.27;3.97;;;;;;;;;;4993679;28;20185;-87
2021/10/12 16:24:05;;;;;;;5.53;3.80;;;;;;;;;;5004531;28;20181;-87
2021/10/12 16:27:09;;;;;;;10.30;4.30;;;;;;;;;;4993811;28;20209;-87
2021/10/12 16:30:13;;;;;;;5.97;3.90;;;;;;;;;;4993273;28;20220;-87
2021/10/12 16:33:17;;;;;;;7.17;4.00;;;;;;;;;;5016247;28;20536;-87
2021/10/12 16:36:21;;;;;;;6.17;4.07;;;;;;;;;;4993444;28;20628;-87
2021/10/12 16:39:31;;;;;;;7.30;4.20;;;;;;;;;;5004573;28;20217;-87
2021/10/12 16:42:37;;;;;;;4.77;4.00;;;;;;;;;;5003849;28;20198;-87
2021/10/12 16:45:41;;;;;;;6.23;4.07;;;;;;;;;;5004385;28;20202;-87
2021/10/12 16:48:45;;;;;;;9.67;4.30;;;;;;;;;;4992814;28;20197;-88
2021/10/12 16:51:51;;;;;;;5.10;4.13;;;;;;;;;;4992885;28;20201;-88
2021/10/12 16:54:55;;;;;;;6.77;3.83;;;;;;;;;;4993710;28;20205;-89
2021/10/12 16:58:03;;;;;;;7.33;4.00;;;;;;;;;;5004536;28;20548;-88
2021/10/12 17:01:07;;;;;;;9.70;4.70;;;;;;;;;;4992378;28;20228;-88
2021/10/12 17:04:16;;;;;;;8.43;3.80;;;;;;;;;;4992821;28;20185;-88
2021/10/12 17:07:20;;;;;;;7.23;3.90;;;;;;;;;;5003683;28;20201;-88
2021/10/12 17:10:24;;;;;;;11.37;4.90;;;;;;;;;;5003740;28;20221;-88
2021/10/12 17:13:28;;;;;;;6.37;5.10;;;;;;;;;;5004049;28;20177;-88
2021/10/12 17:16:33;;;;;;;7.80;4.23;;;;;;;;;;4992727;28;20636;-88
2021/10/12 17:19:37;;;;;;;7.33;3.80;;;;;;;;;;4992489;28;20213;-88
2021/10/12 17:22:41;;;;;;;7.17;4.37;;;;;;;;;;5003605;28;20201;-89
2021/10/12 17:25:46;;;;;;;7.03;4.30;;;;;;;;;;4992141;28;20580;-89
2021/10/12 17:29:21;;;;;;;9.60;4.20;;;;;;;;;;5003727;28;20177;-89
2021/10/12 17:32:39;;;;;;;8.57;4.13;;;;;;;;;;5003475;28;20182;-88
2021/10/12 17:36:03;;;;;;;6.57;4.03;;;;;;;;;;5005784;28;20186;-88
2021/10/12 17:39:07;;;;;;;7.53;3.60;;;;;;;;;;4992129;28;20229;-88
2021/10/12 17:42:11;;;;;;;9.73;4.90;;;;;;;;;;4992294;28;20201;-88
2021/10/12 17:45:15;;;;;;;7.53;4.17;;;;;;;;;;5025702;28;20200;-88
2021/10/12 17:48:20;;;;;;;10.57;4.53;;;;;;;;;;4992262;28;20181;-88
2021/10/12 17:51:24;;;;;;;7.57;4.70;;;;;;;;;;4992733;28;20225;-88
2021/10/12 17:54:35;;;;;;;7.93;4.70;;;;;;;;;;4991772;28;20181;-89
2021/10/12 17:57:40;;;;;;;8.00;4.60;;;;;;;;;;5003026;28;20636;-88
2021/10/12 18:00:44;;;;;;;8.27;4.97;;;;;;;;;;5002630;28;20699;-88
2021/10/12 18:03:53;;;;;;;6.90;5.00;;;;;;;;;;4992154;28;20185;-88
2021/10/12 18:06:57;;;;;;;7.17;5.00;;;;;;;;;;5002625;28;20185;-89
2021/10/12 18:10:04;;;;;;;10.27;5.13;;;;;;;;;;4991487;28;20217;-88
2021/10/12 18:13:08;;;;;;;8.93;5.00;;;;;;;;;;4991032;28;20205;-88
2021/10/12 18:16:13;;;;;;;8.33;4.80;;;;;;;;;;4991425;28;20185;-88
2021/10/12 18:19:17;;;;;;;8.33;5.67;;;;;;;;;;4991481;28;20209;-88
2021/10/12 18:22:21;;;;;;;11.60;6.17;;;;;;;;;;4991395;28;20185;-88
2021/10/12 18:25:28;;;;;;;8.97;6.27;;;;;;;;;;5013675;28;20181;-88
2021/10/12 18:28:34;;;;;;;10.20;6.03;;;;;;;;;;5002364;28;20179;-88